sensor_id;sensor_type;location;lat;lon;timestamp;pressure;altitude;pressure_sealevel;temperature;humidity
70206;BME280;57593;55.896;37.396;2023-01-27T00:00:25;99621.50;;;-1.01;100.00
70206;BME280;57593;55.896;37.396;2023-01-27T00:00:56;99620.22;;;-0.99;100.00
70206;BME280;57593;55.896;37.396;2023-01-27T00:01:27;99627.38;;;-1.11;100.00
70206;BME280;57593;55.896;37.396;2023-01-27T00:01:57;99614.28;;;-1.27;100.00
70206;BME280;57593;55.896;37.396;2023-01-27T00:02:28;99620.16;;;-1.36;100.00
70206;BME280;57593;55.896;37.396;2023-01-27T00:02:58;99631.13;;;-1.29;100.00
70206;BME280;57593;55.896;37.396;2023-01-27T00:03:29;99617.13;;;-1.28;100.00
70206;BME280;57593;55.896;37.396;2023-01-27T00:04:00;99618.16;;;-1.29;100.00
70206;BME280;57593;55.896;37.396;2023-01-27T00:04:30;99614.97;;;-1.36;100.00
70206;BME280;57593;55.896;37.396;2023-01-27T00:05:01;99619.06;;;-1.40;100.00
70206;BME280;57593;55.896;37.396;2023-01-27T00:05:33;99624.81;;;-1.38;100.00
70206;BME280;57593;55.896;37.396;2023-01-27T00:06:04;99621.41;;;-1.39;100.00
70206;BME280;57593;55.896;37.396;2023-01-27T00:06:35;99630.75;;;-1.38;100.00
70206;BME280;57593;55.896;37.396;2023-01-27T00:07:06;99617.81;;;-1.38;100.00
70206;BME280;57593;55.896;37.396;2023-01-27T00:07:37;99621.03;;;-1.25;100.00
70206;BME280;57593;55.896;37.396;2023-01-27T00:08:08;99616.38;;;-1.23;100.00
70206;BME280;57593;55.896;37.396;2023-01-27T00:08:38;99627.78;;;-1.24;100.00
70206;BME280;57593;55.896;37.396;2023-01-27T00:09:09;99615.09;;;-1.26;100.00
70206;BME280;57593;55.896;37.396;2023-01-27T00:09:40;99625.97;;;-1.24;100.00
70206;BME280;57593;55.896;37.396;2023-01-27T00:10:14;99623.00;;;-1.11;100.00
70206;BME280;57593;55.896;37.396;2023-01-27T00:10:45;99624.47;;;-1.20;100.00
70206;BME280;57593;55.896;37.396;2023-01-27T00:11:16;99616.97;;;-1.16;100.00
70206;BME280;57593;55.896;37.396;2023-01-27T00:12:05;99628.75;;;-1.03;100.00
70206;BME280;57593;55.896;37.396;2023-01-27T00:12:54;99629.66;;;-1.20;100.00
70206;BME280;57593;55.896;37.396;2023-01-27T00:13:44;99619.78;;;-1.23;100.00
70206;BME280;57593;55.896;37.396;2023-01-27T00:14:14;99621.31;;;-1.22;100.00
70206;BME280;57593;55.896;37.396;2023-01-27T00:14:45;99620.84;;;-1.19;100.00
70206;BME280;57593;55.896;37.396;2023-01-27T00:15:16;99622.78;;;-1.31;100.00
70206;BME280;57593;55.896;37.396;2023-01-27T00:15:47;99618.25;;;-1.19;100.00
70206;BME280;57593;55.896;37.396;2023-01-27T00:16:17;99612.00;;;-1.23;100.00
70206;BME280;57593;55.896;37.396;2023-01-27T00:16:48;99619.91;;;-1.35;100.00
70206;BME280;57593;55.896;37.396;2023-01-27T00:17:18;99618.69;;;-1.27;100.00
70206;BME280;57593;55.896;37.396;2023-01-27T00:17:49;99621.72;;;-1.35;100.00
70206;BME280;57593;55.896;37.396;2023-01-27T00:18:20;99621.97;;;-1.37;100.00
70206;BME280;57593;55.896;37.396;2023-01-27T00:18:52;99618.41;;;-1.31;100.00
70206;BME280;57593;55.896;37.396;2023-01-27T00:19:23;99622.84;;;-1.26;100.00
70206;BME280;57593;55.896;37.396;2023-01-27T00:19:53;99620.09;;;-1.14;100.00
70206;BME280;57593;55.896;37.396;2023-01-27T00:20:24;99618.47;;;-1.20;100.00
70206;BME280;57593;55.896;37.396;2023-01-27T00:21:13;99622.41;;;-1.18;100.00
70206;BME280;57593;55.896;37.396;2023-01-27T00:22:03;99630.81;;;-1.05;100.00
70206;BME280;57593;55.896;37.396;2023-01-27T00:22:52;99628.69;;;-1.14;100.00
70206;BME280;57593;55.896;37.396;2023-01-27T00:23:41;99624.47;;;-1.20;100.00
70206;BME280;57593;55.896;37.396;2023-01-27T00:24:30;99617.75;;;-1.16;100.00
70206;BME280;57593;55.896;37.396;2023-01-27T00:25:07;99626.25;;;-1.20;100.00
70206;BME280;57593;55.896;37.396;2023-01-27T00:25:37;99624.75;;;-1.16;100.00
70206;BME280;57593;55.896;37.396;2023-01-27T00:26:14;99623.25;;;-1.12;100.00
70206;BME280;57593;55.896;37.396;2023-01-27T00:26:46;99621.97;;;-1.10;100.00
70206;BME280;57593;55.896;37.396;2023-01-27T00:27:16;99617.88;;;-1.00;100.00
70206;BME280;57593;55.896;37.396;2023-01-27T00:27:47;99617.16;;;-0.96;100.00
70206;BME280;57593;55.896;37.396;2023-01-27T00:28:18;99616.06;;;-1.00;100.00
70206;BME280;57593;55.896;37.396;2023-01-27T00:28:52;99614.38;;;-1.16;100.00
70206;BME280;57593;55.896;37.396;2023-01-27T00:29:22;99617.72;;;-1.21;100.00
70206;BME280;57593;55.896;37.396;2023-01-27T00:29:53;99618.25;;;-1.19;100.00
70206;BME280;57593;55.896;37.396;2023-01-27T00:30:24;99621.56;;;-1.23;100.00
70206;BME280;57593;55.896;37.396;2023-01-27T00:30:54;99617.97;;;-1.22;100.00
70206;BME280;57593;55.896;37.396;2023-01-27T00:31:25;99616.09;;;-1.27;100.00
70206;BME280;57593;55.896;37.396;2023-01-27T00:32:14;99619.22;;;-1.25;100.00
70206;BME280;57593;55.896;37.396;2023-01-27T00:33:03;99620.03;;;-1.24;100.00
70206;BME280;57593;55.896;37.396;2023-01-27T00:33:53;99614.88;;;-1.19;100.00
70206;BME280;57593;55.896;37.396;2023-01-27T00:34:25;99618.00;;;-1.17;100.00
70206;BME280;57593;55.896;37.396;2023-01-27T00:34:56;99618.25;;;-1.19;100.00
70206;BME280;57593;55.896;37.396;2023-01-27T00:35:27;99618.00;;;-1.17;100.00
70206;BME280;57593;55.896;37.396;2023-01-27T00:35:59;99611.84;;;-1.11;100.00
70206;BME280;57593;55.896;37.396;2023-01-27T00:36:30;99612.81;;;-1.17;100.00
70206;BME280;57593;55.896;37.396;2023-01-27T00:37:01;99609.25;;;-1.11;100.00
70206;BME280;57593;55.896;37.396;2023-01-27T00:37:32;99614.38;;;-1.16;100.00
70206;BME280;57593;55.896;37.396;2023-01-27T00:38:03;99614.13;;;-1.15;100.00
70206;BME280;57593;55.896;37.396;2023-01-27T00:38:36;99615.78;;;-1.03;100.00
70206;BME280;57593;55.896;37.396;2023-01-27T00:39:12;99612.63;;;-1.11;100.00
70206;BME280;57593;55.896;37.396;2023-01-27T00:39:43;99615.22;;;-1.11;100.00
70206;BME280;57593;55.896;37.396;2023-01-27T00:40:15;99610.47;;;-1.19;100.00
70206;BME280;57593;55.896;37.396;2023-01-27T00:40:46;99614.09;;;-1.20;100.00
70206;BME280;57593;55.896;37.396;2023-01-27T00:41:37;99605.84;;;-1.17;100.00
70206;BME280;57593;55.896;37.396;2023-01-27T00:42:08;99612.88;;;-1.12;100.00
70206;BME280;57593;55.896;37.396;2023-01-27T00:42:39;99607.19;;;-1.09;100.00
70206;BME280;57593;55.896;37.396;2023-01-27T00:43:10;99608.19;;;-1.15;100.00
70206;BME280;57593;55.896;37.396;2023-01-27T00:43:40;99612.03;;;-1.18;100.00
70206;BME280;57593;55.896;37.396;2023-01-27T00:44:11;99607.13;;;-1.14;100.00
70206;BME280;57593;55.896;37.396;2023-01-27T00:44:43;99606.84;;;-1.18;100.00
70206;BME280;57593;55.896;37.396;2023-01-27T00:45:34;99610.16;;;-1.28;100.00
70206;BME280;57593;55.896;37.396;2023-01-27T00:46:22;99602.94;;;-1.48;100.00
70206;BME280;57593;55.896;37.396;2023-01-27T00:46:53;99599.94;;;-1.34;100.00
70206;BME280;57593;55.896;37.396;2023-01-27T00:47:23;99607.78;;;-1.29;100.00
70206;BME280;57593;55.896;37.396;2023-01-27T00:47:54;99604.72;;;-1.26;100.00
70206;BME280;57593;55.896;37.396;2023-01-27T00:48:25;99603.03;;;-1.37;100.00
70206;BME280;57593;55.896;37.396;2023-01-27T00:48:56;99607.56;;;-1.28;100.00
70206;BME280;57593;55.896;37.396;2023-01-27T00:49:27;99605.19;;;-1.29;100.00
70206;BME280;57593;55.896;37.396;2023-01-27T00:49:57;99598.81;;;-1.21;100.00
70206;BME280;57593;55.896;37.396;2023-01-27T00:50:28;99603.88;;;-1.32;100.00
70206;BME280;57593;55.896;37.396;2023-01-27T00:50:59;99597.97;;;-1.27;100.00
70206;BME280;57593;55.896;37.396;2023-01-27T00:51:30;99604.97;;;-1.28;100.00
70206;BME280;57593;55.896;37.396;2023-01-27T00:52:01;99606.56;;;-1.21;100.00
70206;BME280;57593;55.896;37.396;2023-01-27T00:52:31;99605.03;;;-1.17;100.00
70206;BME280;57593;55.896;37.396;2023-01-27T00:53:02;99610.78;;;-1.15;100.00
70206;BME280;57593;55.896;37.396;2023-01-27T00:53:35;99605.28;;;-1.19;100.00
70206;BME280;57593;55.896;37.396;2023-01-27T00:54:05;99612.72;;;-1.28;100.00
70206;BME280;57593;55.896;37.396;2023-01-27T00:54:36;99606.81;;;-1.23;100.00
70206;BME280;57593;55.896;37.396;2023-01-27T00:55:07;99606.66;;;-1.11;100.00
70206;BME280;57593;55.896;37.396;2023-01-27T00:55:40;99604.06;;;-1.11;100.00
70206;BME280;57593;55.896;37.396;2023-01-27T00:56:11;99599.19;;;-1.07;100.00
70206;BME280;57593;55.896;37.396;2023-01-27T00:56:42;99602.09;;;-0.99;100.00
70206;BME280;57593;55.896;37.396;2023-01-27T00:57:13;99608.28;;;-1.00;100.00
70206;BME280;57593;55.896;37.396;2023-01-27T00:57:44;99609.59;;;-1.02;100.00
70206;BME280;57593;55.896;37.396;2023-01-27T00:58:15;99617.84;;;-1.05;100.00
70206;BME280;57593;55.896;37.396;2023-01-27T00:58:46;99614.38;;;-1.16;100.00
70206;BME280;57593;55.896;37.396;2023-01-27T00:59:16;99610.84;;;-1.05;100.00
70206;BME280;57593;55.896;37.396;2023-01-27T00:59:48;99614.50;;;-1.06;100.00
70206;BME280;57593;55.896;37.396;2023-01-27T01:00:19;99612.63;;;-1.11;100.00
70206;BME280;57593;55.896;37.396;2023-01-27T01:00:55;99598.09;;;-1.12;100.00
70206;BME280;57593;55.896;37.396;2023-01-27T01:01:27;99598.59;;;-1.15;100.00
70206;BME280;57593;55.896;37.396;2023-01-27T01:01:58;99602.19;;;-1.16;100.00
70206;BME280;57593;55.896;37.396;2023-01-27T01:02:29;99605.41;;;-1.03;100.00
70206;BME280;57593;55.896;37.396;2023-01-27T01:02:59;99600.16;;;-1.14;100.00
70206;BME280;57593;55.896;37.396;2023-01-27T01:03:31;99604.84;;;-1.11;100.00
70206;BME280;57593;55.896;37.396;2023-01-27T01:04:03;99605.94;;;-1.01;100.00
70206;BME280;57593;55.896;37.396;2023-01-27T01:04:34;99604.38;;;-1.07;100.00
70206;BME280;57593;55.896;37.396;2023-01-27T01:05:05;99603.28;;;-1.12;100.00
70206;BME280;57593;55.896;37.396;2023-01-27T01:05:36;99606.66;;;-1.11;100.00
70206;BME280;57593;55.896;37.396;2023-01-27T01:06:09;99603.56;;;-1.08;100.00
70206;BME280;57593;55.896;37.396;2023-01-27T01:06:40;99604.38;;;-1.07;100.00
70206;BME280;57593;55.896;37.396;2023-01-27T01:07:11;99605.84;;;-1.17;100.00
70206;BME280;57593;55.896;37.396;2023-01-27T01:07:41;99603.28;;;-1.12;100.00
70206;BME280;57593;55.896;37.396;2023-01-27T01:08:12;99601.53;;;-1.06;100.00
70206;BME280;57593;55.896;37.396;2023-01-27T01:08:44;99597.84;;;-1.10;100.00
70206;BME280;57593;55.896;37.396;2023-01-27T01:09:14;99600.34;;;-1.20;100.00
70206;BME280;57593;55.896;37.396;2023-01-27T01:09:45;99592.53;;;-1.25;100.00
70206;BME280;57593;55.896;37.396;2023-01-27T01:10:18;99600.09;;;-1.19;100.00
70206;BME280;57593;55.896;37.396;2023-01-27T01:10:49;99597.59;;;-1.09;100.00
70206;BME280;57593;55.896;37.396;2023-01-27T01:11:20;99591.16;;;-1.06;100.00
70206;BME280;57593;55.896;37.396;2023-01-27T01:11:50;99598.38;;;-1.08;100.00
70206;BME280;57593;55.896;37.396;2023-01-27T01:12:21;99597.09;;;-1.11;100.00
70206;BME280;57593;55.896;37.396;2023-01-27T01:12:53;99595.78;;;-1.08;100.00
70206;BME280;57593;55.896;37.396;2023-01-27T01:13:25;99600.69;;;-1.12;100.00
70206;BME280;57593;55.896;37.396;2023-01-27T01:13:57;99600.44;;;-1.10;100.00
70206;BME280;57593;55.896;37.396;2023-01-27T01:14:27;99607.25;;;-1.04;100.00
70206;BME280;57593;55.896;37.396;2023-01-27T01:15:00;99601.78;;;-1.07;100.00
70206;BME280;57593;55.896;37.396;2023-01-27T01:15:34;99603.84;;;-1.04;100.00
70206;BME280;57593;55.896;37.396;2023-01-27T01:16:37;99599.94;;;-1.07;100.00
70206;BME280;57593;55.896;37.396;2023-01-27T01:17:08;99600.66;;;-1.17;100.00
70206;BME280;57593;55.896;37.396;2023-01-27T01:17:39;99597.81;;;-1.15;100.00
70206;BME280;57593;55.896;37.396;2023-01-27T01:18:10;99601.28;;;-1.32;100.00
70206;BME280;57593;55.896;37.396;2023-01-27T01:18:41;99600.50;;;-1.32;100.00
70206;BME280;57593;55.896;37.396;2023-01-27T01:19:12;99591.94;;;-1.33;100.00
70206;BME280;57593;55.896;37.396;2023-01-27T01:19:43;99600.84;;;-1.23;100.00
70206;BME280;57593;55.896;37.396;2023-01-27T01:20:14;99595.41;;;-1.22;100.00
70206;BME280;57593;55.896;37.396;2023-01-27T01:20:46;99593.84;;;-1.23;100.00
70206;BME280;57593;55.896;37.396;2023-01-27T01:21:17;99596.69;;;-1.24;100.00
70206;BME280;57593;55.896;37.396;2023-01-27T01:21:47;99591.28;;;-1.23;100.00
70206;BME280;57593;55.896;37.396;2023-01-27T01:22:18;99604.06;;;-1.38;100.00
70206;BME280;57593;55.896;37.396;2023-01-27T01:22:49;99613.59;;;-1.44;100.00
70206;BME280;57593;55.896;37.396;2023-01-27T01:23:19;99602.09;;;-1.53;100.00
70206;BME280;57593;55.896;37.396;2023-01-27T01:23:50;99604.97;;;-1.50;100.00
70206;BME280;57593;55.896;37.396;2023-01-27T01:24:21;99602.84;;;-1.58;100.00
70206;BME280;57593;55.896;37.396;2023-01-27T01:24:51;99604.97;;;-1.50;100.00
70206;BME280;57593;55.896;37.396;2023-01-27T01:25:22;99604.59;;;-1.36;100.00
70206;BME280;57593;55.896;37.396;2023-01-27T01:25:56;99598.44;;;-1.30;100.00
70206;BME280;57593;55.896;37.396;2023-01-27T01:26:27;99600.50;;;-1.32;100.00
70206;BME280;57593;55.896;37.396;2023-01-27T01:26:58;99601.91;;;-1.47;100.00
70206;BME280;57593;55.896;37.396;2023-01-27T01:27:29;99596.22;;;-1.43;100.00
70206;BME280;57593;55.896;37.396;2023-01-27T01:28:01;99597.59;;;-1.36;100.00
70206;BME280;57593;55.896;37.396;2023-01-27T01:28:33;99600.69;;;-1.39;100.00
70206;BME280;57593;55.896;37.396;2023-01-27T01:29:04;99598.44;;;-1.30;100.00
70206;BME280;57593;55.896;37.396;2023-01-27T01:29:35;99599.66;;;-1.38;100.00
70206;BME280;57593;55.896;37.396;2023-01-27T01:30:06;99595.56;;;-1.34;100.00
70206;BME280;57593;55.896;37.396;2023-01-27T01:30:37;99602.53;;;-1.34;100.00
70206;BME280;57593;55.896;37.396;2023-01-27T01:31:12;99596.63;;;-1.30;100.00
70206;BME280;57593;55.896;37.396;2023-01-27T01:31:43;99599.47;;;-1.31;100.00
70206;BME280;57593;55.896;37.396;2023-01-27T01:32:14;99600.94;;;-1.40;100.00
70206;BME280;57593;55.896;37.396;2023-01-27T01:32:44;99605.06;;;-1.45;100.00
70206;BME280;57593;55.896;37.396;2023-01-27T01:33:15;99604.97;;;-1.50;100.00
70206;BME280;57593;55.896;37.396;2023-01-27T01:33:48;99596.69;;;-1.52;100.00
70206;BME280;57593;55.896;37.396;2023-01-27T01:34:19;99593.44;;;-1.64;100.00
70206;BME280;57593;55.896;37.396;2023-01-27T01:34:49;99592.91;;;-1.66;100.00
70206;BME280;57593;55.896;37.396;2023-01-27T01:35:21;99598.19;;;-1.56;100.00
70206;BME280;57593;55.896;37.396;2023-01-27T01:35:54;99595.59;;;-1.56;100.00
70206;BME280;57593;55.896;37.396;2023-01-27T01:36:25;99604.97;;;-1.50;100.00
70206;BME280;57593;55.896;37.396;2023-01-27T01:36:55;99606.44;;;-1.37;100.00
70206;BME280;57593;55.896;37.396;2023-01-27T01:37:26;99594.69;;;-1.45;100.00
70206;BME280;57593;55.896;37.396;2023-01-27T01:37:57;99601.53;;;-1.60;100.00
70206;BME280;57593;55.896;37.396;2023-01-27T01:38:27;99595.53;;;-1.61;100.00
70206;BME280;57593;55.896;37.396;2023-01-27T01:38:58;99599.22;;;-1.57;100.00
70206;BME280;57593;55.896;37.396;2023-01-27T01:39:30;99600.88;;;-1.46;100.00
70206;BME280;57593;55.896;37.396;2023-01-27T01:40:00;99594.97;;;-1.41;100.00
70206;BME280;57593;55.896;37.396;2023-01-27T01:40:31;99598.81;;;-1.43;100.00
70206;BME280;57593;55.896;37.396;2023-01-27T01:41:03;99600.34;;;-1.48;100.00
70206;BME280;57593;55.896;37.396;2023-01-27T01:41:34;99604.38;;;-1.62;100.00
70206;BME280;57593;55.896;37.396;2023-01-27T01:42:05;99605.13;;;-1.61;100.00
70206;BME280;57593;55.896;37.396;2023-01-27T01:43:22;99590.47;;;-1.51;100.00
70206;BME280;57593;55.896;37.396;2023-01-27T01:43:53;99609.16;;;-1.49;100.00
70206;BME280;57593;55.896;37.396;2023-01-27T01:44:26;99594.69;;;-1.45;100.00
70206;BME280;57593;55.896;37.396;2023-01-27T01:46:02;99604.13;;;-1.60;100.00
70206;BME280;57593;55.896;37.396;2023-01-27T01:46:33;99597.13;;;-1.60;100.00
70206;BME280;57593;55.896;37.396;2023-01-27T01:47:05;99598.78;;;-1.49;100.00
70206;BME280;57593;55.896;37.396;2023-01-27T01:47:35;99585.34;;;-1.46;100.00
70206;BME280;57593;55.896;37.396;2023-01-27T01:48:14;99590.03;;;-1.42;100.00
70206;BME280;57593;55.896;37.396;2023-01-27T01:48:53;99590.16;;;-1.54;100.00
70206;BME280;57593;55.896;37.396;2023-01-27T01:49:31;99588.94;;;-1.74;100.00
70206;BME280;57593;55.896;37.396;2023-01-27T01:50:04;99585.25;;;-1.78;100.00
70206;BME280;57593;55.896;37.396;2023-01-27T01:50:39;99589.38;;;-1.82;100.00
70206;BME280;57593;55.896;37.396;2023-01-27T01:51:52;99580.81;;;-1.83;100.00
70206;BME280;57593;55.896;37.396;2023-01-27T01:52:18;99588.69;;;-1.72;100.00
70206;BME280;57593;55.896;37.396;2023-01-27T01:52:51;99588.22;;;-1.69;100.00
70206;BME280;57593;55.896;37.396;2023-01-27T01:53:26;99594.72;;;-1.67;100.00
70206;BME280;57593;55.896;37.396;2023-01-27T01:54:04;99582.50;;;-1.71;100.00
70206;BME280;57593;55.896;37.396;2023-01-27T01:54:42;99593.16;;;-1.68;100.00
70206;BME280;57593;55.896;37.396;2023-01-27T01:55:14;99592.91;;;-1.66;100.00
70206;BME280;57593;55.896;37.396;2023-01-27T01:55:45;99591.66;;;-1.64;100.00
70206;BME280;57593;55.896;37.396;2023-01-27T01:56:22;99593.41;;;-1.69;100.00
70206;BME280;57593;55.896;37.396;2023-01-27T01:57:02;99586.00;;;-1.60;100.00
70206;BME280;57593;55.896;37.396;2023-01-27T01:57:35;99571.19;;;-1.65;100.00
70206;BME280;57593;55.896;37.396;2023-01-27T01:58:09;99576.69;;;-1.56;100.00
70206;BME280;57593;55.896;37.396;2023-01-27T01:58:41;99584.13;;;-1.65;100.00
70206;BME280;57593;55.896;37.396;2023-01-27T01:59:40;99584.91;;;-1.65;100.00
70206;BME280;57593;55.896;37.396;2023-01-27T02:00:09;99582.31;;;-1.65;100.00
70206;BME280;57593;55.896;37.396;2023-01-27T02:00:48;99583.31;;;-1.66;100.00
70206;BME280;57593;55.896;37.396;2023-01-27T02:01:19;99570.28;;;-1.76;100.00
70206;BME280;57593;55.896;37.396;2023-01-27T02:01:52;99576.59;;;-1.67;100.00
70206;BME280;57593;55.896;37.396;2023-01-27T02:02:23;99582.56;;;-1.66;100.00
70206;BME280;57593;55.896;37.396;2023-01-27T02:02:55;99581.38;;;-1.53;100.00
70206;BME280;57593;55.896;37.396;2023-01-27T02:03:27;99583.44;;;-1.55;100.00
70206;BME280;57593;55.896;37.396;2023-01-27T02:04:04;99580.69;;;-1.43;100.00
70206;BME280;57593;55.896;37.396;2023-01-27T02:04:41;99579.19;;;-1.39;100.00
70206;BME280;57593;55.896;37.396;2023-01-27T02:05:19;99577.38;;;-1.39;100.00
70206;BME280;57593;55.896;37.396;2023-01-27T02:05:51;99580.13;;;-1.51;100.00
70206;BME280;57593;55.896;37.396;2023-01-27T02:06:24;99574.50;;;-1.42;100.00
70206;BME280;57593;55.896;37.396;2023-01-27T02:07:02;99574.72;;;-1.44;100.00
70206;BME280;57593;55.896;37.396;2023-01-27T02:08:19;99580.44;;;-1.69;100.00
70206;BME280;57593;55.896;37.396;2023-01-27T02:08:50;99581.81;;;-1.61;100.00
70206;BME280;57593;55.896;37.396;2023-01-27T02:09:21;99578.47;;;-1.62;100.00
70206;BME280;57593;55.896;37.396;2023-01-27T02:09:55;99579.72;;;-1.65;100.00
70206;BME280;57593;55.896;37.396;2023-01-27T02:10:26;99586.00;;;-1.60;100.00
70206;BME280;57593;55.896;37.396;2023-01-27T02:10:57;99577.56;;;-1.73;100.00
70206;BME280;57593;55.896;37.396;2023-01-27T02:11:27;99581.38;;;-1.81;100.00
70206;BME280;57593;55.896;37.396;2023-01-27T02:11:59;99577.94;;;-1.86;100.00
70206;BME280;57593;55.896;37.396;2023-01-27T02:12:30;99576.97;;;-1.80;100.00
70206;BME280;57593;55.896;37.396;2023-01-27T02:13:00;99582.66;;;-1.78;100.00
70206;BME280;57593;55.896;37.396;2023-01-27T02:13:32;99580.09;;;-1.78;100.00
70206;BME280;57593;55.896;37.396;2023-01-27T02:14:03;99584.06;;;-1.70;100.00
70206;BME280;57593;55.896;37.396;2023-01-27T02:14:33;99582.75;;;-1.73;100.00
70206;BME280;57593;55.896;37.396;2023-01-27T02:15:06;99587.59;;;-1.76;100.00
70206;BME280;57593;55.896;37.396;2023-01-27T02:15:37;99588.16;;;-1.74;100.00
70206;BME280;57593;55.896;37.396;2023-01-27T02:16:09;99569.97;;;-1.79;100.00
70206;BME280;57593;55.896;37.396;2023-01-27T02:16:40;99574.09;;;-1.84;100.00
70206;BME280;57593;55.896;37.396;2023-01-27T02:17:12;99564.53;;;-1.78;100.00
70206;BME280;57593;55.896;37.396;2023-01-27T02:17:43;99577.97;;;-1.81;100.00
70206;BME280;57593;55.896;37.396;2023-01-27T02:18:14;99572.38;;;-1.73;100.00
70206;BME280;57593;55.896;37.396;2023-01-27T02:18:44;99570.34;;;-1.71;100.00
70206;BME280;57593;55.896;37.396;2023-01-27T02:19:26;99578.00;;;-1.54;100.00
70206;BME280;57593;55.896;37.396;2023-01-27T02:21:09;99565.34;;;-1.77;100.00
70206;BME280;57593;55.896;37.396;2023-01-27T02:21:39;99567.63;;;-1.81;100.00
70206;BME280;57593;55.896;37.396;2023-01-27T02:22:13;99576.44;;;-1.82;100.00
70206;BME280;57593;55.896;37.396;2023-01-27T02:24:00;99568.78;;;-1.94;100.00
70206;BME280;57593;55.896;37.396;2023-01-27T02:24:44;99579.66;;;-1.92;100.00
70206;BME280;57593;55.896;37.396;2023-01-27T02:26:43;99577.19;;;-1.82;100.00
70206;BME280;57593;55.896;37.396;2023-01-27T02:27:14;99574.81;;;-1.88;100.00
70206;BME280;57593;55.896;37.396;2023-01-27T02:27:45;99575.53;;;-1.93;100.00
70206;BME280;57593;55.896;37.396;2023-01-27T02:28:16;99573.75;;;-1.87;100.00
70206;BME280;57593;55.896;37.396;2023-01-27T02:28:56;99575.16;;;-1.79;100.00
70206;BME280;57593;55.896;37.396;2023-01-27T02:29:27;99583.78;;;-1.96;100.00
70206;BME280;57593;55.896;37.396;2023-01-27T02:29:58;99576.06;;;-1.91;100.00
70206;BME280;57593;55.896;37.396;2023-01-27T02:30:28;99575.59;;;-1.88;100.00
70206;BME280;57593;55.896;37.396;2023-01-27T02:30:59;99573.22;;;-1.89;100.00
70206;BME280;57593;55.896;37.396;2023-01-27T02:31:30;99577.63;;;-1.90;100.00
70206;BME280;57593;55.896;37.396;2023-01-27T02:32:01;99571.06;;;-1.97;100.00
70206;BME280;57593;55.896;37.396;2023-01-27T02:32:32;99578.41;;;-1.89;100.00
70206;BME280;57593;55.896;37.396;2023-01-27T02:33:12;99566.13;;;-1.77;100.00
70206;BME280;57593;55.896;37.396;2023-01-27T02:33:42;99573.94;;;-1.72;100.00
70206;BME280;57593;55.896;37.396;2023-01-27T02:34:16;99582.59;;;-1.61;100.00
70206;BME280;57593;55.896;37.396;2023-01-27T02:34:51;99574.94;;;-1.51;100.00
70206;BME280;57593;55.896;37.396;2023-01-27T02:35:36;99571.06;;;-1.48;100.00
70206;BME280;57593;55.896;37.396;2023-01-27T02:36:12;99574.28;;;-1.63;100.00
70206;BME280;57593;55.896;37.396;2023-01-27T02:36:52;99576.88;;;-1.63;100.00
70206;BME280;57593;55.896;37.396;2023-01-27T02:37:25;99566.16;;;-1.72;100.00
70206;BME280;57593;55.896;37.396;2023-01-27T02:37:56;99563.28;;;-1.75;100.00
70206;BME280;57593;55.896;37.396;2023-01-27T02:38:32;99560.91;;;-1.82;100.00
70206;BME280;57593;55.896;37.396;2023-01-27T02:39:04;99558.38;;;-1.99;100.00
70206;BME280;57593;55.896;37.396;2023-01-27T02:39:41;99558.84;;;-2.02;100.00
70206;BME280;57593;55.896;37.396;2023-01-27T02:40:14;99569.63;;;-1.88;100.00
70206;BME280;57593;55.896;37.396;2023-01-27T02:40:47;99575.16;;;-1.79;100.00
70206;BME280;57593;55.896;37.396;2023-01-27T02:41:27;99577.31;;;-1.71;100.00
70206;BME280;57593;55.896;37.396;2023-01-27T02:41:59;99580.97;;;-1.67;100.00
70206;BME280;57593;55.896;37.396;2023-01-27T02:42:33;99575.31;;;-1.64;100.00
70206;BME280;57593;55.896;37.396;2023-01-27T02:43:04;99566.78;;;-1.65;100.00
70206;BME280;57593;55.896;37.396;2023-01-27T02:43:35;99572.28;;;-1.56;100.00
70206;BME280;57593;55.896;37.396;2023-01-27T02:44:06;99572.84;;;-1.54;100.00
70206;BME280;57593;55.896;37.396;2023-01-27T02:44:38;99576.97;;;-1.53;100.00
70206;BME280;57593;55.896;37.396;2023-01-27T02:45:09;99569.28;;;-1.48;100.00
70206;BME280;57593;55.896;37.396;2023-01-27T02:45:39;99576.00;;;-1.47;100.00
70206;BME280;57593;55.896;37.396;2023-01-27T02:46:10;99562.75;;;-1.50;100.00
70206;BME280;57593;55.896;37.396;2023-01-27T02:46:41;99567.63;;;-1.59;100.00
70206;BME280;57593;55.896;37.396;2023-01-27T02:47:11;99579.56;;;-1.53;100.00
70206;BME280;57593;55.896;37.396;2023-01-27T02:47:42;99571.00;;;-1.53;100.00
70206;BME280;57593;55.896;37.396;2023-01-27T02:48:14;99572.03;;;-1.54;100.00
70206;BME280;57593;55.896;37.396;2023-01-27T02:48:44;99572.53;;;-1.57;100.00
70206;BME280;57593;55.896;37.396;2023-01-27T02:49:15;99566.13;;;-1.50;100.00
70206;BME280;57593;55.896;37.396;2023-01-27T02:49:46;99573.59;;;-1.53;100.00
70206;BME280;57593;55.896;37.396;2023-01-27T02:50:18;99575.44;;;-1.54;100.00
70206;BME280;57593;55.896;37.396;2023-01-27T02:50:49;99579.66;;;-1.70;100.00
70206;BME280;57593;55.896;37.396;2023-01-27T02:51:20;99568.41;;;-1.81;100.00
70206;BME280;57593;55.896;37.396;2023-01-27T02:51:51;99568.06;;;-1.89;100.00
70206;BME280;57593;55.896;37.396;2023-01-27T02:52:22;99568.53;;;-1.92;100.00
70206;BME280;57593;55.896;37.396;2023-01-27T02:52:53;99565.34;;;-2.00;100.00
70206;BME280;57593;55.896;37.396;2023-01-27T02:53:25;99566.66;;;-1.97;100.00
70206;BME280;57593;55.896;37.396;2023-01-27T02:53:55;99579.91;;;-1.93;100.00
70206;BME280;57593;55.896;37.396;2023-01-27T02:54:27;99573.03;;;-1.83;100.00
70206;BME280;57593;55.896;37.396;2023-01-27T02:54:58;99565.09;;;-1.76;100.00
70206;BME280;57593;55.896;37.396;2023-01-27T02:55:29;99567.44;;;-1.74;100.00
70206;BME280;57593;55.896;37.396;2023-01-27T02:56:00;99573.75;;;-1.65;100.00
70206;BME280;57593;55.896;37.396;2023-01-27T02:56:31;99572.03;;;-1.54;100.00
70206;BME280;57593;55.896;37.396;2023-01-27T02:57:02;99569.56;;;-1.44;100.00